Dauntless — WDE5055 — position and weather

sailwx.info

Track history (hours):
 
Tides and Currents Weather Stations Pressure Air Temp Water Temp Dewpoint Dewpoint Depression Visibility Wind Speed Wind Dir Waves Ship Positions

Dauntless

Owner: Koethe, Edwin G, Islamorada, FL. More information available from US FCC via Universal Licensing System and Coast Guard Vessel Documentation Center.

Last reported at 2017-Sep-21 18:00 UTC. Time now 2017-Oct-19 01:43 UTC.
Position N 39°44' W 074°06'.
Warning: this ship's position is 27 days out of date.

Length 20 m; draft 1.6 m.

Type: Pleasure craft. MMSI: 367361430.

Date/timePositionNaut miles runAvg speedWind from/ knotsBaromVisibWave heightAir tempDewpointWater temp
2017-Sep-21 18:00N 39°44' W 074°06'5 9.2
2017-Sep-21 17:28N 39°48' W 074°03'41 8.9
2017-Sep-21 12:52N 40°29' W 074°00'2 0.1
2017-Sep-20 16:51N 40°31' W 074°02'3 9.1
2017-Sep-20 16:30N 40°34' W 074°02'5 9.8
2017-Sep-20 16:00N 40°39' W 074°03'4 8.7
2017-Sep-20 15:30N 40°42' W 073°59'  
2017-Sep-14 13:43N 41°11' W 072°42'2 7.2
2017-Sep-14 13:30N 41°11' W 072°40'4 7.1
2017-Sep-14 13:00N 41°13' W 072°36'3 6.9
2017-Sep-14 12:30N 41°14' W 072°32'2 3.5
2017-Sep-14 12:01N 41°16' W 072°32'0 0.0
2017-Sep-12 19:14N 41°16' W 072°32'0 1.1
2017-Sep-12 19:01N 41°16' W 072°32'3 6.5
2017-Sep-12 18:30N 41°14' W 072°28'5 9.2
2017-Sep-12 18:01N 41°14' W 072°22'510.0
2017-Sep-12 17:31N 41°14' W 072°15'10 9.9
2017-Sep-12 16:33N 41°15' W 072°03'210.1
2017-Sep-12 16:20N 41°15' W 071°60'  
Track history (hours):
 
Tides and Currents Weather Stations Pressure Air Temp Water Temp Dewpoint Dewpoint Depression Visibility Wind Speed Wind Dir Waves Ship Positions

Dauntless

Owner: Koethe, Edwin G, Islamorada, FL. More information available from US FCC via Universal Licensing System and Coast Guard Vessel Documentation Center.

Last reported at 2017-Sep-21 18:00 UTC. Time now 2017-Oct-19 01:43 UTC.
Position N 39°44' W 074°06'.
Warning: this ship's position is 27 days out of date.

Length 20 m; draft 1.6 m.

Type: Pleasure craft. MMSI: 367361430.

Date/timePositionNaut miles runAvg speedWind from/ knotsBaromVisibWave heightAir tempDewpointWater temp
2017-Sep-21 18:00N 39°44' W 074°06'5 9.2
2017-Sep-21 17:28N 39°48' W 074°03'41 8.9
2017-Sep-21 12:52N 40°29' W 074°00'2 0.1
2017-Sep-20 16:51N 40°31' W 074°02'3 9.1
2017-Sep-20 16:30N 40°34' W 074°02'5 9.8
2017-Sep-20 16:00N 40°39' W 074°03'4 8.7
2017-Sep-20 15:30N 40°42' W 073°59'  
2017-Sep-14 13:43N 41°11' W 072°42'2 7.2
2017-Sep-14 13:30N 41°11' W 072°40'4 7.1
2017-Sep-14 13:00N 41°13' W 072°36'3 6.9
2017-Sep-14 12:30N 41°14' W 072°32'2 3.5
2017-Sep-14 12:01N 41°16' W 072°32'0 0.0
2017-Sep-12 19:14N 41°16' W 072°32'0 1.1
2017-Sep-12 19:01N 41°16' W 072°32'3 6.5
2017-Sep-12 18:30N 41°14' W 072°28'5 9.2
2017-Sep-12 18:01N 41°14' W 072°22'510.0
2017-Sep-12 17:31N 41°14' W 072°15'10 9.9
2017-Sep-12 16:33N 41°15' W 072°03'210.1
2017-Sep-12 16:20N 41°15' W 071°60'  

Dump ship's entire track history